Aérodrome :
LOGIN :

S'inscrire | Disclaimer

   EN    FR    IT 

 










Légende :    VFR   VFR Marginal   IFR   IFR Intensif   IFR Très Intensif
Visi : 
Plafond : 
>= 8 km
>= 3000ft
5 à 8 km
1000 à 3000 ft
1500m à 5 km
500 à 1000 ft
800 à 1500m
200 à 500 ft
< 800m
< 200 ft
Symboles :   Orages  Brouillard  Fortes neiges  Fortes précipitations  Vent > 20 kt
SIGMETs :   Divers  Orages  Givrage  Turbulence  Onde Orograph.  Cendres Volcan.







- Altitude de l'aérodrome : 100 ft


EBDT - Schaffen

DERNIER METAR :
  • 280255Z AUTO 21012KT 9999 FEW032/// OVC038/// 05/M01 Q0989 BLU

METARs EXPIRÉS :
  • 280225Z AUTO 21012G22KT 9999 SCT036/// BKN042/// 05/M00 Q0989 BLU
  • 280155Z AUTO 22010G23KT 9999 FEW034/// BKN045/// 05/M00 Q0990 BLU
  • 280125Z AUTO 22010G21KT 9999 FEW035/// 05/00 Q0990 BLU
  • 280055Z AUTO 22011G22KT 9999 FEW028/// SCT035/// 05/00 Q0990 BLU
  • 280025Z AUTO 23007KT 9999 FEW033/// SCT038/// BKN055/// 05/02 Q0990 BLU
  • 280013Z AUTO 23008KT 9999 FEW013/// SCT035/// 04/02 Q0990 BLU

TAF TAF EBDT
Valide du 27 à 19h jusqu'au 28 à 07h UTC


271541Z 2719/2807 21014KT 9999 FEW020 BKN030
TEMPO 2719/2723 21018G35KT 5000 -SHRA FEW010 SCT015TCU BKN028
PROB30
TEMPO 2719/2721 21018G40KT 3000 TSRA SCT006 BKN010CB
Pas de NOTAMs connus pour ce terrain.



MET'MAP, la Météo Aéronautique d'un coup d'oeil ! - Copyright ORBIFLY Décembre 2007 - Disclaimer

ORBIFLY MET'MAP TEAM :

Programmation & Développement : Alexandra Zaïnal
Conception & Développement : Baudouin d'Aumeries
Co-Programmation & Développement : Marc-Olivier Méhu
Soutien technique & logistique : Manuel Goepfert

Contact : metmap@orbifly.com




SOURCES & CREDITS :

   NOAA